Time;durP1;ratioP1;P1;durP2;ratioP2;P2;SDS_P1;SDS_P2;PMS_P1;PMS_P2;Temp;Humidity;BMP_temperature;BMP_pressure;BME280_temperature;BME280_humidity;BME280_pressure;Samples;Min_cycle;Max_cycle;Signal;HPM_P1;HPM_P2
2024/03/09 00:00:52;;;;;;;53.85;34.65;;;4.70;99.90;;;;;;4956748;28;20038;-78
2024/03/09 00:03:18;;;;;;;49.85;32.58;;;4.70;99.90;;;;;;4985235;28;20033;-80
2024/03/09 00:05:45;;;;;;;56.72;35.38;;;4.70;99.90;;;;;;4991021;28;20966;-79
2024/03/09 00:08:11;;;;;;;46.83;29.75;;;4.70;99.90;;;;;;4988972;28;20049;-80
2024/03/09 00:10:38;;;;;;;48.38;32.95;;;4.70;99.90;;;;;;4969360;28;20043;-80
2024/03/09 00:13:05;;;;;;;45.50;30.02;;;4.60;99.90;;;;;;4971293;28;20049;-80
2024/03/09 00:15:31;;;;;;;41.78;28.30;;;4.60;99.90;;;;;;4985809;28;20709;-80
2024/03/09 00:17:58;;;;;;;46.50;29.98;;;4.60;99.90;;;;;;4987409;28;20042;-79
2024/03/09 00:20:34;;;;;;;44.85;29.25;;;4.60;99.90;;;;;;4995851;28;20353;-80
2024/03/09 00:23:01;;;;;;;53.42;33.55;;;4.60;99.90;;;;;;4980167;28;20044;-80
2024/03/09 00:25:31;;;;;;;45.90;30.67;;;4.60;99.90;;;;;;4968135;28;20033;-80
2024/03/09 00:27:58;;;;;;;51.45;32.85;;;4.60;99.90;;;;;;4969619;28;20038;-80
2024/03/09 00:30:29;;;;;;;45.95;29.08;;;4.50;99.90;;;;;;4988009;28;20033;-80
2024/03/09 00:33:00;;;;;;;48.00;31.35;;;4.50;99.90;;;;;;4955227;28;20072;-79
2024/03/09 00:35:29;;;;;;;49.72;32.42;;;4.50;99.90;;;;;;5000526;28;20439;-80
2024/03/09 00:37:57;;;;;;;45.43;29.13;;;4.50;99.90;;;;;;4990359;28;20482;-80
2024/03/09 00:40:26;;;;;;;49.72;31.98;;;4.50;99.90;;;;;;4959944;28;20483;-80
2024/03/09 00:42:52;;;;;;;52.80;31.88;;;4.50;99.90;;;;;;4988628;28;20048;-80
2024/03/09 00:45:18;;;;;;;52.17;33.72;;;4.50;99.90;;;;;;4985393;28;20040;-79
2024/03/09 00:47:48;;;;;;;47.70;31.95;;;4.50;99.90;;;;;;4969694;28;20488;-79
2024/03/09 00:50:15;;;;;;;50.28;33.25;;;4.40;99.90;;;;;;5001432;28;20048;-79
2024/03/09 00:52:43;;;;;;;59.63;37.43;;;4.40;99.90;;;;;;4973263;28;20043;-79
2024/03/09 00:55:15;;;;;;;52.75;32.92;;;4.40;99.90;;;;;;4991464;28;21081;-79
2024/03/09 00:57:43;;;;;;;48.58;30.73;;;4.40;99.90;;;;;;4987824;28;20056;-80
2024/03/09 01:00:10;;;;;;;51.78;33.67;;;4.40;99.90;;;;;;4987282;28;20029;-79
2024/03/09 01:02:38;;;;;;;48.72;32.50;;;4.40;99.90;;;;;;4985304;28;20357;-79
2024/03/09 01:05:05;;;;;;;48.63;30.90;;;4.40;99.90;;;;;;4970285;28;20385;-79
2024/03/09 01:07:32;;;;;;;51.10;33.47;;;4.40;99.90;;;;;;4969142;28;20032;-79
2024/03/09 01:09:59;;;;;;;55.45;35.95;;;4.40;99.90;;;;;;4975254;28;20041;-78
2024/03/09 01:12:26;;;;;;;54.78;33.38;;;4.40;99.90;;;;;;4989641;28;20034;-79
2024/03/09 01:14:53;;;;;;;51.35;33.53;;;4.40;99.90;;;;;;4984453;28;20040;-79
2024/03/09 01:17:23;;;;;;;52.22;33.97;;;4.40;99.90;;;;;;4985793;28;21020;-79
2024/03/09 01:19:52;;;;;;;52.23;33.83;;;4.40;99.90;;;;;;4986720;28;20030;-80
2024/03/09 01:22:19;;;;;;;48.42;32.55;;;4.30;99.90;;;;;;4985992;28;20425;-80
2024/03/09 01:24:46;;;;;;;56.77;36.30;;;4.30;99.90;;;;;;5009898;28;20507;-80
2024/03/09 01:27:13;;;;;;;52.60;33.33;;;4.30;99.90;;;;;;5025811;28;20526;-80
2024/03/09 01:29:45;;;;;;;50.53;32.27;;;4.30;99.90;;;;;;4993552;28;20501;-79
2024/03/09 01:32:11;;;;;;;51.35;33.65;;;4.30;99.90;;;;;;4988997;28;20033;-79
2024/03/09 01:34:39;;;;;;;51.33;34.17;;;4.30;99.90;;;;;;4990896;28;20037;-79
2024/03/09 01:37:05;;;;;;;56.90;36.53;;;4.30;99.90;;;;;;4951212;28;20033;-79
2024/03/09 01:39:32;;;;;;;52.70;32.37;;;4.30;99.90;;;;;;4999274;28;20080;-79
2024/03/09 01:41:58;;;;;;;49.30;33.40;;;4.30;99.90;;;;;;4983143;28;20056;-79
2024/03/09 01:44:25;;;;;;;49.83;32.28;;;4.20;99.90;;;;;;4957163;28;20056;-79
2024/03/09 01:46:52;;;;;;;48.25;32.00;;;4.20;99.90;;;;;;4987500;28;21245;-79
2024/03/09 01:49:19;;;;;;;47.83;32.00;;;4.20;99.90;;;;;;4977180;28;20025;-79
2024/03/09 01:51:47;;;;;;;54.47;33.33;;;4.20;99.90;;;;;;4992598;28;20933;-79
2024/03/09 01:54:24;;;;;;;52.20;33.60;;;4.20;99.90;;;;;;4979545;28;20392;-80
2024/03/09 01:56:51;;;;;;;54.78;34.75;;;4.20;99.90;;;;;;4976074;28;20033;-81
2024/03/09 01:59:19;;;;;;;50.90;31.40;;;4.10;99.90;;;;;;4976345;28;20033;-79
2024/03/09 02:01:45;;;;;;;46.17;29.77;;;4.10;99.90;;;;;;4991143;28;20637;-79
2024/03/09 02:04:12;;;;;;;52.30;32.00;;;4.10;99.90;;;;;;4975419;28;21182;-79
2024/03/09 02:06:40;;;;;;;46.92;29.45;;;4.00;99.90;;;;;;5023058;28;20037;-79
2024/03/09 02:09:07;;;;;;;56.53;34.47;;;4.00;99.90;;;;;;4981534;28;20495;-79
2024/03/09 02:11:42;;;;;;;47.03;30.75;;;4.00;99.90;;;;;;4997734;28;20030;-80
2024/03/09 02:14:09;;;;;;;46.97;30.53;;;4.00;99.90;;;;;;4957559;28;20033;-79
2024/03/09 02:16:36;;;;;;;49.88;32.22;;;4.00;99.90;;;;;;4953460;28;20048;-79
2024/03/09 02:19:03;;;;;;;42.05;27.83;;;3.90;99.90;;;;;;4975233;28;20045;-80
2024/03/09 02:21:31;;;;;;;49.83;33.27;;;3.90;99.90;;;;;;4975647;28;20045;-80
2024/03/09 02:24:05;;;;;;;49.03;30.90;;;3.90;99.90;;;;;;4977416;28;20030;-81
2024/03/09 02:26:36;;;;;;;42.63;28.67;;;3.90;99.90;;;;;;4981113;28;20431;-82
2024/03/09 02:29:03;;;;;;;46.90;31.95;;;3.90;99.90;;;;;;4993877;28;20804;-81
2024/03/09 02:31:30;;;;;;;46.30;31.30;;;3.90;99.90;;;;;;4991620;28;20041;-82
2024/03/09 02:33:56;;;;;;;50.97;33.43;;;3.80;99.90;;;;;;4992992;28;20033;-79
2024/03/09 02:36:23;;;;;;;51.70;32.10;;;3.80;99.90;;;;;;4974545;28;20056;-81
2024/03/09 02:38:51;;;;;;;51.47;32.97;;;3.80;99.90;;;;;;5005477;28;20036;-81
2024/03/09 02:41:18;;;;;;;51.77;34.03;;;3.90;99.90;;;;;;4983535;28;20620;-81
2024/03/09 02:43:46;;;;;;;52.93;32.23;;;3.80;99.90;;;;;;4960243;28;20036;-81
2024/03/09 02:46:15;;;;;;;49.00;30.77;;;3.80;99.90;;;;;;4974766;28;20052;-81
2024/03/09 02:48:45;;;;;;;45.77;29.00;;;3.80;99.90;;;;;;4990773;28;20472;-80
2024/03/09 02:51:13;;;;;;;47.08;31.08;;;3.80;99.90;;;;;;4963798;28;20496;-80
2024/03/09 02:53:40;;;;;;;47.33;31.33;;;3.70;99.90;;;;;;4980164;28;20044;-80
2024/03/09 02:56:15;;;;;;;45.37;29.47;;;3.70;99.90;;;;;;4981027;28;20512;-81
2024/03/09 02:58:42;;;;;;;49.20;31.43;;;3.70;99.90;;;;;;4966457;28;20030;-82
2024/03/09 03:01:10;;;;;;;43.87;28.80;;;3.70;99.90;;;;;;4974863;28;20048;-81
2024/03/09 03:03:56;;;;;;;49.20;30.23;;;3.70;99.90;;;;;;5007966;28;22364;-81
2024/03/09 03:06:23;;;;;;;47.00;30.43;;;3.60;99.90;;;;;;4960754;28;21893;-82
2024/03/09 03:08:56;;;;;;;51.30;34.40;;;3.70;99.90;;;;;;4988819;28;20820;-82
2024/03/09 03:11:24;;;;;;;51.13;33.47;;;3.70;99.90;;;;;;4981046;28;20110;-80
2024/03/09 03:13:51;;;;;;;45.53;30.27;;;3.60;99.90;;;;;;4994001;28;20029;-80
2024/03/09 03:16:22;;;;;;;51.38;32.42;;;3.60;99.90;;;;;;4987791;28;20048;-82
2024/03/09 03:18:48;;;;;;;50.03;31.80;;;3.60;99.90;;;;;;4988269;28;20666;-80
2024/03/09 03:21:15;;;;;;;53.83;33.90;;;3.60;99.90;;;;;;4974258;28;20052;-82
2024/03/09 03:23:42;;;;;;;47.17;29.33;;;3.60;99.90;;;;;;4977623;28;21546;-81
2024/03/09 03:26:12;;;;;;;46.83;31.03;;;3.60;99.90;;;;;;4996564;28;20423;-80
2024/03/09 03:28:39;;;;;;;45.57;30.40;;;3.60;99.90;;;;;;4981001;28;20041;-79
2024/03/09 03:31:06;;;;;;;46.33;29.90;;;3.60;99.90;;;;;;4988557;28;20292;-80
2024/03/09 03:33:33;;;;;;;44.67;28.83;;;3.50;99.90;;;;;;4952709;28;20782;-80
2024/03/09 03:36:01;;;;;;;43.23;29.63;;;3.50;99.90;;;;;;4968465;28;20675;-79
2024/03/09 03:38:28;;;;;;;43.17;28.35;;;3.50;99.90;;;;;;4987058;28;20495;-80
2024/03/09 03:40:54;;;;;;;45.47;29.30;;;3.50;99.90;;;;;;4978209;28;20364;-79
2024/03/09 03:43:21;;;;;;;47.70;29.87;;;3.50;99.90;;;;;;4968509;28;20044;-79
2024/03/09 03:45:47;;;;;;;42.17;27.53;;;3.50;99.90;;;;;;4982180;28;20069;-79
2024/03/09 03:48:16;;;;;;;49.27;29.90;;;3.50;99.90;;;;;;4957162;28;20409;-80
2024/03/09 03:50:43;;;;;;;52.63;33.85;;;3.50;99.90;;;;;;4990900;28;20040;-80
2024/03/09 03:53:09;;;;;;;50.87;32.63;;;3.50;99.90;;;;;;4972417;28;20040;-79
2024/03/09 03:55:37;;;;;;;49.03;31.67;;;3.50;99.90;;;;;;4980567;28;20069;-79
2024/03/09 03:58:06;;;;;;;53.60;34.27;;;3.60;99.90;;;;;;5008627;28;20038;-79
2024/03/09 04:00:33;;;;;;;47.90;30.92;;;3.60;99.90;;;;;;4985226;28;20446;-79
2024/03/09 04:02:59;;;;;;;51.47;32.23;;;3.70;99.90;;;;;;4974452;28;21586;-79
2024/03/09 04:05:29;;;;;;;55.50;34.80;;;3.70;99.90;;;;;;4972604;28;20029;-80
2024/03/09 04:07:56;;;;;;;51.30;32.43;;;3.70;99.90;;;;;;4986832;28;20057;-79
2024/03/09 04:10:23;;;;;;;47.60;29.83;;;3.80;99.90;;;;;;4981314;28;20296;-80
2024/03/09 04:12:50;;;;;;;43.67;27.50;;;3.80;99.90;;;;;;4960920;28;21525;-80
2024/03/09 04:15:17;;;;;;;44.80;29.70;;;3.80;99.90;;;;;;4974522;28;20465;-81
2024/03/09 04:17:43;;;;;;;51.57;32.70;;;3.80;99.90;;;;;;4959378;28;20384;-78
2024/03/09 04:20:15;;;;;;;52.47;32.63;;;3.80;99.90;;;;;;4957866;28;20025;-78
2024/03/09 04:22:45;;;;;;;52.00;32.60;;;3.80;99.90;;;;;;4989452;28;20049;-77
2024/03/09 04:25:12;;;;;;;50.00;32.00;;;3.80;99.90;;;;;;4976527;28;20041;-79
2024/03/09 04:27:40;;;;;;;48.27;30.17;;;3.90;99.90;;;;;;4954765;28;20599;-77
2024/03/09 04:30:07;;;;;;;50.40;32.43;;;3.90;99.90;;;;;;4987588;28;20030;-80
2024/03/09 04:32:33;;;;;;;46.97;31.25;;;3.90;99.90;;;;;;4989489;28;20034;-81
2024/03/09 04:35:01;;;;;;;45.77;28.37;;;3.90;99.90;;;;;;4969610;28;21281;-80
2024/03/09 04:37:28;;;;;;;49.53;31.47;;;3.90;99.90;;;;;;4994585;28;20029;-80
2024/03/09 04:39:58;;;;;;;51.47;31.73;;;3.90;99.90;;;;;;4996097;28;20022;-80
2024/03/09 04:42:25;;;;;;;47.70;30.38;;;3.90;99.90;;;;;;4990481;28;20108;-81
2024/03/09 04:44:52;;;;;;;41.53;27.17;;;3.90;99.90;;;;;;4965832;28;20057;-80
2024/03/09 04:47:19;;;;;;;44.87;28.20;;;3.90;99.90;;;;;;4989433;28;20045;-80
2024/03/09 04:49:49;;;;;;;43.90;28.13;;;3.90;99.90;;;;;;4989354;28;20049;-79
2024/03/09 04:52:16;;;;;;;60.03;36.43;;;3.90;99.90;;;;;;4976156;28;20049;-78
2024/03/09 04:54:43;;;;;;;49.17;32.05;;;3.90;99.90;;;;;;4997395;28;20029;-78
2024/03/09 04:57:24;;;;;;;51.57;32.73;;;3.90;99.90;;;;;;4973037;28;20037;-77
2024/03/09 04:59:50;;;;;;;44.87;28.60;;;3.90;99.90;;;;;;4966170;28;20036;-78
2024/03/09 05:02:17;;;;;;;45.90;29.00;;;3.90;99.90;;;;;;4958333;28;20045;-76
2024/03/09 05:04:44;;;;;;;45.10;29.60;;;3.90;99.90;;;;;;4990128;28;20342;-78
2024/03/09 05:07:10;;;;;;;45.00;29.30;;;4.00;99.90;;;;;;4980357;28;20041;-79
2024/03/09 05:09:40;;;;;;;45.50;29.57;;;3.90;99.90;;;;;;4996319;28;21219;-78
2024/03/09 05:12:06;;;;;;;44.15;29.95;;;3.90;99.90;;;;;;4974523;28;20045;-77
2024/03/09 05:14:33;;;;;;;50.23;32.03;;;3.90;99.90;;;;;;5002341;28;20029;-80
2024/03/09 05:16:59;;;;;;;54.40;32.27;;;3.90;99.90;;;;;;4972892;28;21756;-81
2024/03/09 05:19:26;;;;;;;46.50;29.40;;;3.90;99.90;;;;;;4972968;28;21372;-79
2024/03/09 05:21:52;;;;;;;46.10;30.33;;;3.90;99.90;;;;;;4974123;28;20816;-77
2024/03/09 05:24:18;;;;;;;46.83;30.47;;;3.90;99.90;;;;;;4996768;28;20052;-77
2024/03/09 05:26:45;;;;;;;45.87;30.23;;;3.80;99.90;;;;;;4978000;28;20657;-79
2024/03/09 05:29:11;;;;;;;46.20;30.43;;;3.80;99.90;;;;;;4975806;28;20036;-79
2024/03/09 05:31:39;;;;;;;48.63;30.73;;;3.80;99.90;;;;;;4991251;28;20045;-77
2024/03/09 05:34:07;;;;;;;43.03;27.83;;;3.70;99.90;;;;;;4956213;28;20029;-78
2024/03/09 05:36:35;;;;;;;45.03;29.47;;;3.70;99.90;;;;;;4995862;28;20033;-81
2024/03/09 05:39:01;;;;;;;41.50;28.20;;;3.70;99.90;;;;;;4999482;28;20029;-79
2024/03/09 05:41:28;;;;;;;46.73;31.43;;;3.60;99.90;;;;;;4979746;28;20021;-80
2024/03/09 05:43:55;;;;;;;47.10;29.97;;;3.60;99.90;;;;;;4975197;28;20037;-78
2024/03/09 05:46:21;;;;;;;48.03;30.77;;;3.60;99.90;;;;;;4959435;28;20613;-79
2024/03/09 05:48:50;;;;;;;48.38;29.30;;;3.50;99.90;;;;;;4978902;28;21954;-78
2024/03/09 05:51:18;;;;;;;43.03;27.70;;;3.50;99.90;;;;;;5009657;28;20119;-79
2024/03/09 05:53:44;;;;;;;38.13;26.00;;;3.50;99.90;;;;;;4982027;28;20037;-78
2024/03/09 05:56:11;;;;;;;42.13;27.37;;;3.40;99.90;;;;;;4994979;28;20045;-78
2024/03/09 05:58:39;;;;;;;45.23;28.87;;;3.40;99.90;;;;;;4977427;28;20032;-79
2024/03/09 06:01:05;;;;;;;42.67;28.57;;;3.40;99.90;;;;;;5011780;28;20086;-79
2024/03/09 06:03:31;;;;;;;47.15;31.58;;;3.40;99.90;;;;;;4994138;28;20064;-79
2024/03/09 06:05:58;;;;;;;47.30;29.67;;;3.40;99.90;;;;;;4989777;28;20034;-80
2024/03/09 06:08:24;;;;;;;50.67;32.23;;;3.40;99.90;;;;;;4976757;28;20038;-78
2024/03/09 06:10:53;;;;;;;43.00;27.77;;;3.50;99.90;;;;;;4999260;28;20034;-80
2024/03/09 06:13:20;;;;;;;47.53;28.87;;;3.40;99.90;;;;;;5012985;28;20029;-78
2024/03/09 06:15:47;;;;;;;52.53;32.57;;;3.40;99.90;;;;;;4979943;28;20045;-80
2024/03/09 06:18:16;;;;;;;44.27;29.23;;;3.40;99.90;;;;;;4974691;28;20041;-78
2024/03/09 06:20:43;;;;;;;42.90;27.50;;;3.40;99.90;;;;;;4992487;28;20040;-78
2024/03/09 06:23:09;;;;;;;45.13;28.40;;;3.40;99.90;;;;;;4995648;28;21091;-78
2024/03/09 06:25:36;;;;;;;39.57;26.00;;;3.40;99.90;;;;;;4996938;28;20427;-78
2024/03/09 06:28:08;;;;;;;37.53;24.73;;;3.50;99.90;;;;;;5009459;28;20029;-76
2024/03/09 06:30:36;;;;;;;42.47;27.07;;;3.50;99.90;;;;;;4975946;28;20025;-78
2024/03/09 06:33:03;;;;;;;44.97;29.53;;;3.50;99.90;;;;;;4987088;28;20030;-77
2024/03/09 06:35:30;;;;;;;44.87;28.70;;;3.60;99.90;;;;;;4992438;28;20048;-78
2024/03/09 06:38:01;;;;;;;44.07;28.13;;;3.60;99.90;;;;;;4988819;28;20636;-77
2024/03/09 06:40:39;;;;;;;48.33;31.23;;;3.70;99.90;;;;;;4979120;28;20038;-77
2024/03/09 06:43:09;;;;;;;47.67;29.40;;;3.80;99.90;;;;;;4978716;28;20057;-77
2024/03/09 06:45:42;;;;;;;47.23;30.37;;;3.80;99.90;;;;;;4975239;28;20049;-77
2024/03/09 06:48:08;;;;;;;47.50;28.60;;;3.90;99.90;;;;;;5024201;28;20487;-77
2024/03/09 06:50:36;;;;;;;43.83;28.50;;;4.00;99.90;;;;;;4974770;28;20064;-78
2024/03/09 06:53:03;;;;;;;49.83;31.30;;;4.10;99.90;;;;;;4959747;28;20037;-77
2024/03/09 06:55:30;;;;;;;42.43;27.40;;;4.10;99.90;;;;;;4961446;28;20068;-78
2024/03/09 06:58:01;;;;;;;39.15;26.00;;;4.20;99.90;;;;;;4996377;28;20518;-77
2024/03/09 07:00:29;;;;;;;44.23;29.53;;;4.20;99.90;;;;;;5000026;28;20037;-77
2024/03/09 07:03:01;;;;;;;43.50;28.63;;;4.30;99.90;;;;;;4987030;28;21516;-77
2024/03/09 07:05:30;;;;;;;39.17;25.50;;;4.40;99.90;;;;;;4990184;28;20038;-78
2024/03/09 07:08:00;;;;;;;42.55;28.95;;;4.40;99.90;;;;;;4974523;28;20037;-77
2024/03/09 07:10:28;;;;;;;42.00;26.67;;;4.50;99.90;;;;;;4991263;28;20030;-78
2024/03/09 07:12:57;;;;;;;44.25;27.05;;;4.50;99.90;;;;;;4994751;28;20674;-77
2024/03/09 07:15:29;;;;;;;41.03;26.45;;;4.60;99.90;;;;;;4987174;28;20412;-77
2024/03/09 07:17:56;;;;;;;44.10;29.67;;;4.60;99.90;;;;;;4966498;28;21420;-77
2024/03/09 07:20:23;;;;;;;41.93;28.90;;;4.60;99.90;;;;;;4973346;28;20048;-78
2024/03/09 07:22:51;;;;;;;44.77;29.53;;;4.60;99.90;;;;;;4990740;28;20044;-78
2024/03/09 07:25:25;;;;;;;41.17;26.73;;;4.60;99.90;;;;;;4974162;28;20516;-78
2024/03/09 07:27:57;;;;;;;46.30;30.05;;;4.70;99.90;;;;;;4962529;28;20048;-78
2024/03/09 07:30:24;;;;;;;41.47;27.20;;;4.70;99.90;;;;;;4996839;28;20044;-78
2024/03/09 07:32:50;;;;;;;41.60;26.70;;;4.80;99.90;;;;;;4976939;28;20056;-77
2024/03/09 07:35:18;;;;;;;42.97;28.17;;;4.80;99.90;;;;;;4975232;28;20045;-78
2024/03/09 07:37:53;;;;;;;36.70;26.00;;;4.80;99.90;;;;;;4975017;28;20044;-78
2024/03/09 07:40:22;;;;;;;43.63;28.63;;;4.90;99.90;;;;;;4975497;28;20037;-79
2024/03/09 07:42:49;;;;;;;49.00;31.23;;;4.90;99.90;;;;;;4991071;28;20056;-79
2024/03/09 07:45:16;;;;;;;44.17;29.75;;;5.00;99.90;;;;;;4995696;28;20750;-79
2024/03/09 07:47:45;;;;;;;43.47;28.88;;;5.00;99.90;;;;;;4994457;28;20048;-78
2024/03/09 07:50:15;;;;;;;44.13;28.40;;;5.00;99.90;;;;;;4976455;28;20037;-79
2024/03/09 07:52:46;;;;;;;40.28;27.02;;;5.00;99.90;;;;;;4976372;28;20041;-80
2024/03/09 07:55:17;;;;;;;35.92;24.80;;;5.10;99.90;;;;;;4973849;28;20037;-78
2024/03/09 07:57:44;;;;;;;44.22;29.42;;;5.10;99.90;;;;;;5010474;28;22978;-79
2024/03/09 08:00:33;;;;;;;36.05;24.75;;;5.20;99.90;;;;;;4996464;28;20544;-79
2024/03/09 08:02:59;;;;;;;39.97;27.73;;;5.30;99.90;;;;;;4992949;28;20057;-79
2024/03/09 08:05:28;;;;;;;39.97;26.05;;;5.30;99.90;;;;;;4971805;28;20034;-79
2024/03/09 08:07:55;;;;;;;41.53;27.63;;;5.40;99.90;;;;;;4973784;28;20041;-79
2024/03/09 08:10:23;;;;;;;36.20;24.85;;;5.40;99.90;;;;;;4992877;28;20048;-79
2024/03/09 08:12:52;;;;;;;36.90;26.65;;;5.40;99.90;;;;;;4991847;28;20034;-78
2024/03/09 08:15:19;;;;;;;40.10;26.73;;;5.40;99.90;;;;;;4997411;28;20507;-79
2024/03/09 08:17:49;;;;;;;33.88;24.15;;;5.50;99.90;;;;;;4977038;28;20491;-79
2024/03/09 08:20:17;;;;;;;36.28;24.13;;;5.50;99.90;;;;;;4990429;28;20396;-80
2024/03/09 08:22:45;;;;;;;36.00;25.45;;;5.60;99.90;;;;;;4990350;28;20049;-79
2024/03/09 08:25:15;;;;;;;45.80;29.92;;;5.60;99.90;;;;;;4956591;28;20025;-79
2024/03/09 08:27:44;;;;;;;48.47;30.63;;;5.70;99.90;;;;;;4990153;28;20471;-80
2024/03/09 08:30:15;;;;;;;46.30;30.27;;;5.70;99.90;;;;;;4993083;28;20052;-79
2024/03/09 08:32:44;;;;;;;41.88;28.90;;;5.70;99.90;;;;;;4996533;28;20375;-79
2024/03/09 08:35:15;;;;;;;38.67;26.75;;;5.70;99.90;;;;;;4991023;28;20072;-77
2024/03/09 08:37:42;;;;;;;38.30;25.15;;;5.70;99.90;;;;;;5021507;28;20262;-79
2024/03/09 08:40:10;;;;;;;35.13;26.58;;;5.80;99.90;;;;;;4972511;28;20037;-78
2024/03/09 08:42:37;;;;;;;39.83;27.70;;;5.90;99.90;;;;;;4988044;28;20404;-78
2024/03/09 08:45:05;;;;;;;37.15;24.50;;;6.10;99.90;;;;;;4977451;28;20397;-79
2024/03/09 08:47:32;;;;;;;39.35;27.92;;;6.20;99.90;;;;;;4995437;28;20623;-78
2024/03/09 08:49:59;;;;;;;33.83;23.75;;;6.30;99.90;;;;;;4930881;28;1199945;-79
2024/03/09 08:52:25;;;;;;;36.40;23.92;;;6.40;99.90;;;;;;4961368;28;20025;-79
2024/03/09 08:54:51;;;;;;;35.70;23.95;;;6.50;99.90;;;;;;4987833;28;20029;-81
2024/03/09 08:57:18;;;;;;;31.50;21.77;;;6.60;99.90;;;;;;4987900;28;20064;-81
2024/03/09 08:59:46;;;;;;;32.63;22.45;;;6.70;99.90;;;;;;4974057;28;20483;-81
2024/03/09 09:02:12;;;;;;;31.05;20.92;;;6.80;99.90;;;;;;4995552;28;20037;-79
2024/03/09 09:04:39;;;;;;;35.13;24.70;;;7.00;99.90;;;;;;5008634;28;21050;-76
2024/03/09 09:07:05;;;;;;;32.53;22.90;;;7.10;99.90;;;;;;4988893;28;20048;-78
2024/03/09 09:09:32;;;;;;;32.10;23.77;;;7.20;99.90;;;;;;4973290;28;20046;-80
2024/03/09 09:12:01;;;;;;;30.00;22.58;;;7.30;99.90;;;;;;4974275;28;20026;-79
2024/03/09 09:14:28;;;;;;;34.30;23.48;;;7.50;99.90;;;;;;5008977;28;20044;-82
2024/03/09 09:16:55;;;;;;;29.25;21.50;;;7.60;99.90;;;;;;4993807;28;20048;-78
2024/03/09 09:19:22;;;;;;;27.88;19.67;;;7.60;99.90;;;;;;4944171;28;20041;-80
2024/03/09 09:21:49;;;;;;;31.38;22.05;;;7.70;99.90;;;;;;4985125;28;20021;-79
2024/03/09 09:24:19;;;;;;;28.52;20.77;;;7.70;99.90;;;;;;4983876;28;20048;-79
2024/03/09 09:26:46;;;;;;;29.08;20.10;;;7.90;99.90;;;;;;4984050;28;20041;-78
2024/03/09 09:29:12;;;;;;;26.70;19.38;;;8.10;99.90;;;;;;4975766;28;20037;-82
2024/03/09 09:31:39;;;;;;;34.17;23.92;;;8.30;99.90;;;;;;4967227;28;22868;-79
2024/03/09 09:34:06;;;;;;;27.02;19.52;;;8.40;99.90;;;;;;4995323;28;20052;-77
2024/03/09 09:36:33;;;;;;;30.70;20.60;;;8.50;99.90;;;;;;4989033;28;20033;-80
2024/03/09 09:38:59;;;;;;;27.35;19.50;;;8.60;99.90;;;;;;4971883;28;20041;-78
2024/03/09 09:41:28;;;;;;;25.15;18.25;;;8.70;99.90;;;;;;4972745;28;20041;-81
2024/03/09 09:43:57;;;;;;;26.63;19.65;;;8.80;99.90;;;;;;4990975;28;20146;-78
2024/03/09 09:46:25;;;;;;;30.08;20.55;;;8.80;99.90;;;;;;4978565;28;20045;-81
2024/03/09 09:48:55;;;;;;;28.08;20.08;;;8.90;99.90;;;;;;4994638;28;20037;-80
2024/03/09 09:51:25;;;;;;;26.38;19.08;;;8.90;99.90;;;;;;4976870;28;20037;-80
2024/03/09 09:53:55;;;;;;;27.90;20.35;;;8.90;99.90;;;;;;4976489;28;20056;-80
2024/03/09 09:56:21;;;;;;;25.02;18.80;;;9.00;99.90;;;;;;4991597;28;20057;-77
2024/03/09 09:58:49;;;;;;;27.45;20.08;;;9.00;99.90;;;;;;4994190;28;20383;-80
2024/03/09 10:01:21;;;;;;;27.73;18.70;;;9.10;99.90;;;;;;4968673;28;20467;-81
2024/03/09 10:03:48;;;;;;;;;;;9.20;99.90;;;;;;4990319;28;20049;-80
2024/03/09 10:06:20;;;;;;;37.40;23.20;;;9.20;99.90;;;;;;4987489;28;20413;-80
2024/03/09 10:08:48;;;;;;;42.78;27.30;;;9.40;99.90;;;;;;4974461;28;20041;-80
2024/03/09 10:11:15;;;;;;;35.08;23.42;;;9.40;99.90;;;;;;5007771;28;20444;-80
2024/03/09 10:13:43;;;;;;;32.88;22.55;;;9.40;99.90;;;;;;4993406;28;20034;-79
2024/03/09 10:16:12;;;;;;;29.52;20.52;;;9.60;99.90;;;;;;4997126;28;20148;-80
2024/03/09 10:18:47;;;;;;;25.75;18.33;;;9.70;99.90;;;;;;4964880;28;20389;-79
2024/03/09 10:21:24;;;;;;;28.30;18.35;;;10.00;99.90;;;;;;4974262;28;20878;-79
2024/03/09 10:24:04;;;;;;;25.08;18.08;;;10.40;99.90;;;;;;4987924;28;20045;-79
2024/03/09 10:26:31;;;;;;;25.27;18.33;;;10.70;99.90;;;;;;4991783;28;20423;-80
2024/03/09 10:29:03;;;;;;;25.90;19.60;;;11.00;99.90;;;;;;4993397;28;20048;-84
2024/03/09 10:31:30;;;;;;;23.23;17.25;;;11.30;99.90;;;;;;4984201;28;20853;-81
2024/03/09 10:33:57;;;;;;;22.33;17.30;;;11.60;99.90;;;;;;4995665;28;20292;-80
2024/03/09 10:36:25;;;;;;;24.13;17.30;;;11.90;99.90;;;;;;4977682;28;20063;-80
2024/03/09 10:38:56;;;;;;;20.45;15.23;;;12.20;99.90;;;;;;4990390;28;20476;-79
2024/03/09 10:41:26;;;;;;;21.23;16.02;;;12.40;99.90;;;;;;5007377;28;20045;-80
2024/03/09 10:43:54;;;;;;;23.17;17.98;;;12.40;99.90;;;;;;4983434;28;20041;-78
2024/03/09 10:46:30;;;;;;;25.65;19.52;;;12.30;99.90;;;;;;4981133;28;20036;-80
2024/03/09 10:48:57;;;;;;;22.88;17.75;;;12.50;99.90;;;;;;4979400;28;20037;-79
2024/03/09 10:51:50;;;;;;;26.52;18.42;;;12.80;99.90;;;;;;4990468;28;20423;-80
2024/03/09 10:54:43;;;;;;;20.83;16.67;;;13.10;99.90;;;;;;4989040;28;20041;-78
2024/03/09 10:57:13;;;;;;;;;;;13.50;99.90;;;;;;4989789;28;20037;-81
2024/03/09 10:59:41;;;;;;;23.27;15.75;;;14.00;99.90;;;;;;4962706;28;19915;-81
2024/03/09 11:02:08;;;;;;;21.58;15.60;;;14.30;99.90;;;;;;4998190;28;20075;-80
2024/03/09 11:04:34;;;;;;;19.50;14.13;;;14.50;99.90;;;;;;4995977;28;20042;-82
2024/03/09 11:07:01;;;;;;;19.15;15.38;;;14.90;99.90;;;;;;4986669;28;20037;-79
2024/03/09 11:09:29;;;;;;;19.75;14.20;;;15.00;99.90;;;;;;5007800;28;20037;-79
2024/03/09 11:12:01;;;;;;;17.40;14.85;;;14.90;99.90;;;;;;4991862;28;20028;-80
2024/03/09 11:14:27;;;;;;;18.80;14.68;;;14.80;99.90;;;;;;4994541;28;20036;-77
2024/03/09 11:16:55;;;;;;;17.20;13.35;;;15.20;99.90;;;;;;4992732;28;20037;-79
2024/03/09 11:19:26;;;;;;;17.20;13.73;;;15.70;99.90;;;;;;4974566;28;20036;-78
2024/03/09 11:21:53;;;;;;;20.27;16.77;;;16.10;99.90;;;;;;4992683;28;20044;-81
2024/03/09 11:24:27;;;;;;;19.33;15.25;;;16.10;99.90;;;;;;4976964;28;20499;-81
2024/03/09 11:26:53;;;;;;;18.60;15.45;;;16.30;99.90;;;;;;4990522;28;20064;-78
2024/03/09 11:29:27;;;;;;;17.50;15.07;;;16.60;99.90;;;;;;4993608;28;20740;-79
2024/03/09 11:31:58;;;;;;;17.33;14.88;;;16.40;99.90;;;;;;4995755;28;20038;-79
2024/03/09 11:34:26;;;;;;;19.67;15.40;;;15.80;99.80;;;;;;4961231;28;20802;-78
2024/03/09 11:36:57;;;;;;;18.80;15.00;;;15.10;99.60;;;;;;4990339;28;20330;-79
2024/03/09 11:39:28;;;;;;;21.02;16.13;;;14.50;99.90;;;;;;4989323;28;20060;-79
2024/03/09 11:41:57;;;;;;;19.75;14.95;;;14.20;99.90;;;;;;4976118;28;20096;-79
2024/03/09 11:44:33;;;;;;;23.55;17.20;;;13.90;99.90;;;;;;4995848;28;20048;-79
2024/03/09 11:47:03;;;;;;;22.98;17.50;;;13.80;99.90;;;;;;4995412;28;20048;-78
2024/03/09 11:49:29;;;;;;;32.88;21.05;;;13.80;99.90;;;;;;4972420;28;20064;-78
2024/03/09 11:51:57;;;;;;;37.20;25.08;;;13.90;99.90;;;;;;4975514;28;20021;-77
2024/03/09 11:54:27;;;;;;;24.45;18.08;;;13.70;99.90;;;;;;4986440;28;20336;-80
2024/03/09 11:56:55;;;;;;;22.75;16.40;;;13.50;99.90;;;;;;4972301;28;20050;-79
2024/03/09 11:59:23;;;;;;;18.95;14.88;;;13.50;99.90;;;;;;4978303;28;20036;-80
2024/03/09 12:02:07;;;;;;;18.20;14.63;;;13.50;99.90;;;;;;4995827;28;20026;-79
2024/03/09 12:04:33;;;;;;;18.67;14.75;;;13.60;99.90;;;;;;4959632;28;20048;-77
2024/03/09 12:07:08;;;;;;;23.63;15.85;;;13.60;99.90;;;;;;4957938;28;20037;-79
2024/03/09 12:09:35;;;;;;;21.13;15.73;;;13.70;99.90;;;;;;4956840;28;20166;-80
2024/03/09 12:12:19;;;;;;;19.67;15.85;;;13.90;99.90;;;;;;4988663;28;20037;-78
2024/03/09 12:14:46;;;;;;;21.48;16.35;;;14.00;99.90;;;;;;4995821;28;20030;-80
2024/03/09 12:17:14;;;;;;;19.30;14.80;;;14.10;99.90;;;;;;4980048;28;20049;-78
2024/03/09 12:19:43;;;;;;;18.35;15.95;;;14.90;99.90;;;;;;4990242;28;20783;-79
2024/03/09 12:22:10;;;;;;;16.92;14.68;;;16.10;99.90;;;;;;4958937;28;20468;-78
2024/03/09 12:24:37;;;;;;;17.17;14.07;;;16.80;99.90;;;;;;4987156;28;20348;-79
2024/03/09 12:27:04;;;;;;;15.70;13.18;;;16.60;98.80;;;;;;4970266;28;20076;-79
2024/03/09 12:29:32;;;;;;;16.67;13.68;;;16.10;98.80;;;;;;4991459;28;20613;-79
2024/03/09 12:31:59;;;;;;;17.75;15.05;;;15.70;99.10;;;;;;4958904;28;20419;-76
2024/03/09 12:34:25;;;;;;;19.15;14.63;;;15.40;99.30;;;;;;5005115;28;20064;-80
2024/03/09 12:36:52;;;;;;;20.02;15.57;;;15.30;99.60;;;;;;4986148;28;20088;-79
2024/03/09 12:39:19;;;;;;;19.50;16.20;;;15.40;99.00;;;;;;4958419;28;20039;-80
2024/03/09 12:41:53;;;;;;;16.85;13.38;;;15.40;99.10;;;;;;4974689;28;20051;-79